createdAt,value
2023-02-02T00:02:38.970Z,17.13
2023-02-02T00:05:49.675Z,17.13
2023-02-02T00:08:52.132Z,17.13
2023-02-02T00:11:54.832Z,17.06
2023-02-02T00:14:57.149Z,17.13
2023-02-02T00:17:59.398Z,17.13
2023-02-02T00:21:01.587Z,17.13
2023-02-02T00:24:04.586Z,17.06
2023-02-02T00:27:06.816Z,17.06
2023-02-02T00:30:09.995Z,17.00
2023-02-02T00:33:12.149Z,17.00
2023-02-02T00:36:14.846Z,17.06
2023-02-02T00:39:19.852Z,17.00
2023-02-02T00:42:22.067Z,17.00
2023-02-02T00:45:25.557Z,17.00
2023-02-02T00:48:28.042Z,17.00
2023-02-02T00:51:30.352Z,17.00
2023-02-02T00:54:32.630Z,16.94
2023-02-02T00:57:34.912Z,16.94
2023-02-02T01:00:40.094Z,16.94
2023-02-02T01:03:42.362Z,16.94
2023-02-02T01:06:44.548Z,16.88
2023-02-02T01:09:46.854Z,16.94
2023-02-02T01:12:49.172Z,16.94
2023-02-02T01:15:56.592Z,16.94
2023-02-02T01:18:58.836Z,16.94
2023-02-02T01:22:02.754Z,16.88
2023-02-02T01:25:06.354Z,16.88
2023-02-02T01:28:08.694Z,16.81
2023-02-02T01:31:14.206Z,16.88
2023-02-02T01:34:16.413Z,16.81
2023-02-02T01:37:18.737Z,16.81
2023-02-02T01:40:21.038Z,16.81
2023-02-02T01:43:29.302Z,16.81
2023-02-02T01:46:33.954Z,16.81
2023-02-02T01:49:36.792Z,16.81
2023-02-02T01:52:39.988Z,16.75
2023-02-02T01:55:43.207Z,16.75
2023-02-02T01:58:46.174Z,16.81
2023-02-02T02:01:49.001Z,16.75
2023-02-02T02:04:51.601Z,16.75
2023-02-02T02:07:58.322Z,16.75
2023-02-02T02:11:00.653Z,16.75
2023-02-02T02:14:28.035Z,16.75
2023-02-02T02:17:30.187Z,16.69
2023-02-02T02:21:09.412Z,16.69
2023-02-02T02:24:59.728Z,16.69
2023-02-02T02:28:22.920Z,16.69
2023-02-02T02:31:36.994Z,16.63
2023-02-02T02:34:51.336Z,16.69
2023-02-02T02:37:57.444Z,16.69
2023-02-02T02:41:05.861Z,16.69
2023-02-02T02:44:12.873Z,16.63
2023-02-02T02:47:15.700Z,16.69
2023-02-02T02:50:18.005Z,16.63
2023-02-02T02:53:22.404Z,16.56
2023-02-02T02:56:39.539Z,16.63
2023-02-02T03:00:09.845Z,16.63
2023-02-02T03:03:44.172Z,16.56
2023-02-02T03:06:57.475Z,16.56
2023-02-02T03:10:02.489Z,16.56
2023-02-02T03:13:11.437Z,16.56
2023-02-02T03:16:16.131Z,16.56
2023-02-02T03:19:19.125Z,16.56
2023-02-02T03:22:21.353Z,16.56
2023-02-02T03:25:23.962Z,16.56
2023-02-02T03:28:27.563Z,16.50
2023-02-02T03:31:30.557Z,16.44
2023-02-02T03:34:32.824Z,16.50
2023-02-02T03:37:35.399Z,16.50
2023-02-02T03:40:37.622Z,16.44
2023-02-02T03:43:39.835Z,16.38
2023-02-02T03:46:42.266Z,16.44
2023-02-02T03:49:44.586Z,16.44
2023-02-02T03:52:46.880Z,16.44
2023-02-02T03:55:49.110Z,16.38
2023-02-02T03:58:51.423Z,16.44
2023-02-02T04:01:53.670Z,16.44
2023-02-02T04:04:56.028Z,16.50
2023-02-02T04:07:58.255Z,16.56
2023-02-02T04:11:00.589Z,16.63
2023-02-02T04:14:02.965Z,16.69
2023-02-02T04:17:05.294Z,16.81
2023-02-02T04:20:08.076Z,16.88
2023-02-02T04:23:10.273Z,17.06
2023-02-02T04:26:12.435Z,17.13
2023-02-02T04:29:14.717Z,17.25
2023-02-02T04:32:17.877Z,17.38
2023-02-02T04:35:19.996Z,17.50
2023-02-02T04:38:22.266Z,17.56
2023-02-02T04:41:25.001Z,17.63
2023-02-02T04:44:27.299Z,17.69
2023-02-02T04:47:29.949Z,17.75
2023-02-02T04:50:32.216Z,17.81
2023-02-02T04:53:34.434Z,17.81
2023-02-02T04:56:36.875Z,17.88
2023-02-02T04:59:41.918Z,17.94
2023-02-02T05:02:44.716Z,18.06
2023-02-02T05:05:47.236Z,18.06
2023-02-02T05:08:49.718Z,18.06
2023-02-02T05:11:52.008Z,18.06
2023-02-02T05:14:54.244Z,18.06
2023-02-02T05:17:56.453Z,18.06
2023-02-02T05:21:03.252Z,18.06
2023-02-02T05:24:05.691Z,18.00
2023-02-02T05:27:07.906Z,18.00
2023-02-02T05:30:12.385Z,18.19
2023-02-02T05:33:15.317Z,18.38
2023-02-02T05:36:17.356Z,18.50
2023-02-02T05:39:21.582Z,18.56
2023-02-02T05:42:23.642Z,18.56
2023-02-02T05:45:26.128Z,18.56
2023-02-02T05:48:28.911Z,18.50
2023-02-02T05:51:42.640Z,18.50
2023-02-02T05:54:45.020Z,18.44
2023-02-02T05:57:47.069Z,18.38
2023-02-02T06:00:49.637Z,18.38
2023-02-02T06:03:51.912Z,18.38
2023-02-02T06:06:54.295Z,18.50
2023-02-02T06:09:56.430Z,18.50
2023-02-02T06:12:59.008Z,18.50
2023-02-02T06:16:01.497Z,18.44
2023-02-02T06:19:04.030Z,18.50
2023-02-02T06:22:06.964Z,18.50
2023-02-02T06:25:09.600Z,18.63
2023-02-02T06:28:11.614Z,18.56
2023-02-02T06:31:13.769Z,18.56
2023-02-02T06:34:15.986Z,18.56
2023-02-02T06:37:18.037Z,18.56
2023-02-02T06:40:20.360Z,18.69
2023-02-02T06:43:22.453Z,18.69
2023-02-02T06:46:24.627Z,18.69
2023-02-02T06:49:26.695Z,18.69
2023-02-02T06:52:28.783Z,18.75
2023-02-02T06:55:31.000Z,18.81
2023-02-02T06:58:33.975Z,18.94
2023-02-02T07:01:36.106Z,18.88
2023-02-02T07:04:38.291Z,18.88
2023-02-02T07:07:40.394Z,18.94
2023-02-02T07:11:12.735Z,19.06
2023-02-02T07:14:06.381Z,19.19
2023-02-02T07:17:08.411Z,19.25
2023-02-02T07:20:11.113Z,19.19
2023-02-02T07:23:13.173Z,19.19
2023-02-02T07:26:17.242Z,19.31
2023-02-02T07:29:19.358Z,19.44
2023-02-02T07:32:21.459Z,19.44
2023-02-02T07:35:23.867Z,19.38
2023-02-02T07:38:26.065Z,19.31
2023-02-02T07:41:28.420Z,19.50
2023-02-02T07:44:30.530Z,19.63
2023-02-02T07:47:32.638Z,19.75
2023-02-02T07:50:34.913Z,19.63
2023-02-02T07:53:37.224Z,19.56
2023-02-02T07:56:39.944Z,19.50
2023-02-02T07:59:41.975Z,19.69
2023-02-02T08:02:44.089Z,19.69
2023-02-02T08:05:46.207Z,19.69
2023-02-02T08:08:49.400Z,19.63
2023-02-02T08:11:51.480Z,19.63
2023-02-02T08:14:53.645Z,19.69
2023-02-02T08:17:55.806Z,19.81
2023-02-02T08:21:01.370Z,19.81
2023-02-02T08:24:05.100Z,19.81
2023-02-02T08:27:10.558Z,19.81
2023-02-02T08:30:13.636Z,19.88
2023-02-02T08:33:15.810Z,20.00
2023-02-02T08:36:20.602Z,20.00
2023-02-02T08:39:22.682Z,19.88
2023-02-02T08:42:24.730Z,19.94
2023-02-02T08:46:02.972Z,19.94
2023-02-02T08:48:49.258Z,20.00
2023-02-02T08:51:51.373Z,20.06
2023-02-02T08:54:53.695Z,20.13
2023-02-02T08:57:55.919Z,19.94
2023-02-02T09:01:11.333Z,20.00
2023-02-02T09:04:16.970Z,20.06
2023-02-02T09:07:21.182Z,20.13
2023-02-02T09:10:23.311Z,20.13
2023-02-02T09:13:25.397Z,20.06
2023-02-02T09:16:28.033Z,20.00
2023-02-02T09:19:30.937Z,20.00
2023-02-02T09:22:33.802Z,20.13
2023-02-02T09:25:35.907Z,20.19
2023-02-02T09:28:42.008Z,20.13
2023-02-02T09:31:44.294Z,20.13
2023-02-02T09:34:46.366Z,20.13
2023-02-02T09:37:48.459Z,20.19
2023-02-02T09:40:50.530Z,20.31
2023-02-02T09:43:52.555Z,20.31
2023-02-02T09:47:19.590Z,20.19
2023-02-02T09:50:34.354Z,20.19
2023-02-02T09:53:54.763Z,20.25
2023-02-02T09:56:58.702Z,20.31
2023-02-02T10:00:00.784Z,20.31
2023-02-02T10:03:27.257Z,20.25
2023-02-02T10:06:38.636Z,20.19
2023-02-02T10:10:02.196Z,20.19
2023-02-02T10:13:06.863Z,20.19
2023-02-02T10:16:18.477Z,20.19
2023-02-02T10:19:21.205Z,20.19
2023-02-02T10:22:27.378Z,20.19
2023-02-02T10:25:29.754Z,20.19
2023-02-02T10:29:00.864Z,20.38
2023-02-02T10:32:24.809Z,20.44
2023-02-02T10:36:15.561Z,20.31
2023-02-02T10:39:37.160Z,20.31
2023-02-02T10:43:14.693Z,20.38
2023-02-02T10:46:21.197Z,20.44
2023-02-02T10:49:31.139Z,20.50
2023-02-02T10:52:34.958Z,20.38
2023-02-02T10:55:48.209Z,20.38
2023-02-02T10:59:03.270Z,20.44
2023-02-02T11:02:20.821Z,20.50
2023-02-02T11:05:45.647Z,20.50
2023-02-02T11:08:56.616Z,20.50
2023-02-02T11:12:06.683Z,20.50
2023-02-02T11:15:25.793Z,20.56
2023-02-02T11:18:30.579Z,20.69
2023-02-02T11:21:34.385Z,20.75
2023-02-02T11:24:48.288Z,20.75
2023-02-02T11:27:50.437Z,20.75
2023-02-02T11:30:53.476Z,20.75
2023-02-02T11:34:18.284Z,20.81
2023-02-02T11:37:22.705Z,20.88
2023-02-02T11:40:32.656Z,20.94
2023-02-02T11:43:41.545Z,20.88
2023-02-02T11:46:47.474Z,20.88
2023-02-02T11:49:51.668Z,20.81
2023-02-02T11:52:55.472Z,20.94
2023-02-02T11:56:02.111Z,21.06
2023-02-02T11:59:04.409Z,21.00
2023-02-02T12:02:26.410Z,21.06
2023-02-02T12:05:36.723Z,20.94
2023-02-02T12:08:38.833Z,20.88
2023-02-02T12:12:02.586Z,20.94
2023-02-02T12:15:23.857Z,20.88
2023-02-02T12:18:45.958Z,20.94
2023-02-02T12:22:11.513Z,21.00
2023-02-02T12:25:56.895Z,20.94
2023-02-02T12:29:18.787Z,20.94
2023-02-02T12:32:30.063Z,20.94
2023-02-02T12:36:07.761Z,20.88
2023-02-02T12:39:38.804Z,20.88
2023-02-02T12:43:09.547Z,20.94
2023-02-02T12:46:32.871Z,20.88
2023-02-02T12:49:44.140Z,20.81
2023-02-02T12:52:49.571Z,20.81
2023-02-02T12:55:57.195Z,20.75
2023-02-02T12:59:04.992Z,20.75
2023-02-02T13:02:27.971Z,20.75
2023-02-02T13:05:58.556Z,20.69
2023-02-02T13:09:09.960Z,20.56
2023-02-02T13:12:16.937Z,20.56
2023-02-02T13:15:24.625Z,20.56
2023-02-02T13:18:31.447Z,20.44
2023-02-02T13:21:34.589Z,20.38
2023-02-02T13:24:40.476Z,20.38
2023-02-02T13:27:43.831Z,20.31
2023-02-02T13:30:49.897Z,20.25
2023-02-02T13:34:06.226Z,20.25
2023-02-02T13:37:39.448Z,20.19
2023-02-02T13:40:44.045Z,20.13
2023-02-02T13:44:17.191Z,20.13
2023-02-02T13:47:40.352Z,20.13
2023-02-02T13:51:11.432Z,20.06
2023-02-02T13:54:28.566Z,20.06
2023-02-02T13:57:49.098Z,19.94
2023-02-02T14:00:57.675Z,19.75
2023-02-02T14:04:01.238Z,19.69
2023-02-02T14:07:06.956Z,19.69
2023-02-02T14:10:35.500Z,19.75
2023-02-02T14:14:05.136Z,19.75
2023-02-02T14:17:17.371Z,19.75
2023-02-02T14:20:42.488Z,19.75
2023-02-02T14:23:55.635Z,19.69
2023-02-02T14:27:01.653Z,19.69
2023-02-02T14:30:22.784Z,19.63
2023-02-02T14:33:38.165Z,19.69
2023-02-02T14:36:48.739Z,19.75
2023-02-02T14:39:50.919Z,19.69
2023-02-02T14:43:42.747Z,19.69
2023-02-02T14:46:49.154Z,19.69
2023-02-02T14:49:56.092Z,19.69
2023-02-02T14:53:02.900Z,19.69
2023-02-02T14:56:14.145Z,19.63
2023-02-02T14:59:31.557Z,19.63
2023-02-02T15:02:36.732Z,19.63
2023-02-02T15:05:43.991Z,19.56
2023-02-02T15:08:46.530Z,19.63
2023-02-02T15:12:03.515Z,19.56
2023-02-02T15:15:23.114Z,19.56
2023-02-02T15:18:39.541Z,19.56
2023-02-02T15:21:43.172Z,19.56
2023-02-02T15:24:46.358Z,19.50
2023-02-02T15:28:08.380Z,19.50
2023-02-02T15:31:20.544Z,19.50
2023-02-02T15:34:42.515Z,19.38
2023-02-02T15:37:52.426Z,19.38
2023-02-02T15:40:56.725Z,19.38
2023-02-02T15:43:59.909Z,19.38
2023-02-02T15:47:03.593Z,19.44
2023-02-02T15:50:19.175Z,19.31
2023-02-02T15:53:43.202Z,19.31
2023-02-02T15:56:45.315Z,19.38
2023-02-02T15:59:49.335Z,19.38
2023-02-02T16:03:15.060Z,19.38
2023-02-02T16:06:18.041Z,19.31
2023-02-02T16:09:28.730Z,19.31
2023-02-02T16:12:31.090Z,19.31
2023-02-02T16:15:33.554Z,19.31
2023-02-02T16:18:36.145Z,19.25
2023-02-02T16:21:59.021Z,19.25
2023-02-02T16:25:05.886Z,19.25
2023-02-02T16:28:14.031Z,19.25
2023-02-02T16:31:16.621Z,19.25
2023-02-02T16:34:38.244Z,19.25
2023-02-02T16:37:40.301Z,19.19
2023-02-02T16:40:42.503Z,19.19
2023-02-02T16:43:44.587Z,19.19
2023-02-02T16:46:49.195Z,19.19
2023-02-02T16:50:12.333Z,19.19
2023-02-02T16:53:24.184Z,19.13
2023-02-02T16:56:28.303Z,19.13
2023-02-02T16:59:33.548Z,19.13
2023-02-02T17:02:45.403Z,19.06
2023-02-02T17:05:49.190Z,19.00
2023-02-02T17:08:51.695Z,18.94
2023-02-02T17:12:00.535Z,18.94
2023-02-02T17:15:34.389Z,18.88
2023-02-02T17:18:36.921Z,18.88
2023-02-02T17:21:39.097Z,18.81
2023-02-02T17:24:44.017Z,18.81
2023-02-02T17:27:46.890Z,18.81
2023-02-02T17:31:09.958Z,18.75
2023-02-02T17:34:16.335Z,18.75
2023-02-02T17:37:18.633Z,18.75
2023-02-02T17:40:22.656Z,18.69
2023-02-02T17:43:24.963Z,18.69
2023-02-02T17:46:30.909Z,18.69
2023-02-02T17:49:32.998Z,18.69
2023-02-02T17:52:37.239Z,18.69
2023-02-02T17:55:42.676Z,18.63
2023-02-02T17:58:44.812Z,18.63
2023-02-02T18:01:47.248Z,18.69
2023-02-02T18:04:49.453Z,18.63
2023-02-02T18:07:51.630Z,18.56
2023-02-02T18:10:54.086Z,18.56
2023-02-02T18:13:56.201Z,18.56
2023-02-02T18:16:58.416Z,18.50
2023-02-02T18:20:00.682Z,18.50
2023-02-02T18:23:03.207Z,18.50
2023-02-02T18:26:17.593Z,18.44
2023-02-02T18:29:19.694Z,18.50
2023-02-02T18:32:21.811Z,18.50
2023-02-02T18:35:25.304Z,18.44
2023-02-02T18:38:27.922Z,18.44
2023-02-02T18:41:30.369Z,18.38
2023-02-02T18:44:34.425Z,18.38
2023-02-02T18:47:38.902Z,18.38
2023-02-02T18:50:41.997Z,18.38
2023-02-02T18:53:45.189Z,18.38
2023-02-02T18:56:47.297Z,18.38
2023-02-02T18:59:50.792Z,18.31
2023-02-02T19:02:54.651Z,18.38
2023-02-02T19:06:15.140Z,18.31
2023-02-02T19:09:17.542Z,18.31
2023-02-02T19:12:19.670Z,18.31
2023-02-02T19:15:22.880Z,18.31
2023-02-02T19:18:25.281Z,18.25
2023-02-02T19:21:30.616Z,18.19
2023-02-02T19:24:38.927Z,18.25
2023-02-02T19:27:41.429Z,18.19
2023-02-02T19:30:45.324Z,18.19
2023-02-02T19:33:50.316Z,18.25
2023-02-02T19:36:52.555Z,18.13
2023-02-02T19:40:18.950Z,18.13
2023-02-02T19:43:27.924Z,18.19
2023-02-02T19:46:30.724Z,18.13
2023-02-02T19:49:37.227Z,18.13
2023-02-02T19:52:40.039Z,18.13
2023-02-02T19:55:44.191Z,18.06
2023-02-02T19:58:46.630Z,18.06
2023-02-02T20:01:50.703Z,18.06
2023-02-02T20:05:11.171Z,18.13
2023-02-02T20:08:16.192Z,18.06
2023-02-02T20:11:18.367Z,18.06
2023-02-02T20:14:30.374Z,18.06
2023-02-02T20:17:34.502Z,18.06
2023-02-02T20:20:43.109Z,18.00
2023-02-02T20:23:46.545Z,17.94
2023-02-02T20:26:49.304Z,17.94
2023-02-02T20:29:53.878Z,17.94
2023-02-02T20:32:58.777Z,18.00
2023-02-02T20:36:02.631Z,17.94
2023-02-02T20:39:41.150Z,17.94
2023-02-02T20:42:43.246Z,17.94
2023-02-02T20:45:45.460Z,17.88
2023-02-02T20:48:49.028Z,17.94
2023-02-02T20:51:52.382Z,17.94
2023-02-02T20:54:54.460Z,17.88
2023-02-02T20:57:56.555Z,17.88
2023-02-02T21:01:00.271Z,17.88
2023-02-02T21:04:05.262Z,17.88
2023-02-02T21:07:07.765Z,17.88
2023-02-02T21:10:10.233Z,17.81
2023-02-02T21:13:12.514Z,17.88
2023-02-02T21:16:14.580Z,17.81
2023-02-02T21:19:16.677Z,17.88
2023-02-02T21:22:18.843Z,17.81
2023-02-02T21:25:20.941Z,17.81
2023-02-02T21:28:23.059Z,17.81
2023-02-02T21:31:26.177Z,17.75
2023-02-02T21:34:29.389Z,17.81
2023-02-02T21:37:34.818Z,17.75
2023-02-02T21:40:37.226Z,17.75
2023-02-02T21:43:39.444Z,17.75
2023-02-02T21:46:42.175Z,17.75
2023-02-02T21:49:44.317Z,17.75
2023-02-02T21:52:47.757Z,17.75
2023-02-02T21:55:59.581Z,17.69
2023-02-02T21:59:06.970Z,17.69
2023-02-02T22:02:29.215Z,17.69
2023-02-02T22:05:35.952Z,17.69
2023-02-02T22:08:38.099Z,17.69
2023-02-02T22:11:58.447Z,17.69
2023-02-02T22:15:04.513Z,17.63
2023-02-02T22:18:35.499Z,17.63
2023-02-02T22:21:37.634Z,17.63
2023-02-02T22:24:40.039Z,17.63
2023-02-02T22:27:46.867Z,17.56
2023-02-02T22:30:53.061Z,17.63
2023-02-02T22:33:55.248Z,17.56
2023-02-02T22:36:57.362Z,17.56
2023-02-02T22:40:00.787Z,17.56
2023-02-02T22:43:05.721Z,17.56
2023-02-02T22:46:07.950Z,17.56
2023-02-02T22:49:10.035Z,17.50
2023-02-02T22:52:12.090Z,17.50
2023-02-02T22:55:14.632Z,17.50
2023-02-02T22:58:16.681Z,17.50
2023-02-02T23:01:18.810Z,17.50
2023-02-02T23:04:20.896Z,17.44
2023-02-02T23:07:23.018Z,17.50
2023-02-02T23:10:27.655Z,17.50
2023-02-02T23:13:30.080Z,17.44
2023-02-02T23:16:32.184Z,17.44
2023-02-02T23:19:34.321Z,17.44
2023-02-02T23:22:36.427Z,17.44
2023-02-02T23:25:38.557Z,17.44
2023-02-02T23:28:40.721Z,17.38
2023-02-02T23:31:42.892Z,17.38
2023-02-02T23:34:45.121Z,17.38
2023-02-02T23:37:47.336Z,17.38
2023-02-02T23:40:49.398Z,17.38
2023-02-02T23:43:51.932Z,17.38
2023-02-02T23:46:54.920Z,17.31
2023-02-02T23:49:57.105Z,17.31
2023-02-02T23:52:59.265Z,17.31
2023-02-02T23:56:01.334Z,17.38
2023-02-02T23:59:03.430Z,17.31
